sensor_id;sensor_type;location;lat;lon;timestamp;temperature;humidity
83596;HTU21D;73564;45.026;38.952;2024-01-15T00:01:50;8.16;70.48
83596;HTU21D;73564;45.026;38.952;2024-01-15T00:04:16;8.19;70.38
83596;HTU21D;73564;45.026;38.952;2024-01-15T00:06:42;8.20;70.04
83596;HTU21D;73564;45.026;38.952;2024-01-15T00:09:08;8.19;70.04
83596;HTU21D;73564;45.026;38.952;2024-01-15T00:11:35;8.09;68.71
83596;HTU21D;73564;45.026;38.952;2024-01-15T00:14:01;8.03;69.94
83596;HTU21D;73564;45.026;38.952;2024-01-15T00:16:26;8.00;70.40
83596;HTU21D;73564;45.026;38.952;2024-01-15T00:18:52;8.00;70.50
83596;HTU21D;73564;45.026;38.952;2024-01-15T00:21:18;8.02;70.81
83596;HTU21D;73564;45.026;38.952;2024-01-15T00:23:43;8.08;70.76
83596;HTU21D;73564;45.026;38.952;2024-01-15T00:26:10;8.13;70.39
83596;HTU21D;73564;45.026;38.952;2024-01-15T00:28:39;8.13;70.16
83596;HTU21D;73564;45.026;38.952;2024-01-15T00:31:05;8.11;70.54
83596;HTU21D;73564;45.026;38.952;2024-01-15T00:33:31;8.14;70.46
83596;HTU21D;73564;45.026;38.952;2024-01-15T00:35:56;8.05;70.05
83596;HTU21D;73564;45.026;38.952;2024-01-15T00:38:22;8.02;70.60
83596;HTU21D;73564;45.026;38.952;2024-01-15T00:40:48;7.99;70.69
83596;HTU21D;73564;45.026;38.952;2024-01-15T00:43:14;7.93;70.29
83596;HTU21D;73564;45.026;38.952;2024-01-15T00:45:40;7.86;70.57
83596;HTU21D;73564;45.026;38.952;2024-01-15T00:48:06;7.76;70.43
83596;HTU21D;73564;45.026;38.952;2024-01-15T00:50:32;7.64;70.75
83596;HTU21D;73564;45.026;38.952;2024-01-15T00:52:58;7.56;70.60
83596;HTU21D;73564;45.026;38.952;2024-01-15T00:55:23;7.42;70.82
83596;HTU21D;73564;45.026;38.952;2024-01-15T00:57:49;7.33;71.26
83596;HTU21D;73564;45.026;38.952;2024-01-15T01:00:15;7.29;71.43
83596;HTU21D;73564;45.026;38.952;2024-01-15T01:02:41;7.25;71.59
83596;HTU21D;73564;45.026;38.952;2024-01-15T01:05:07;7.25;72.22
83596;HTU21D;73564;45.026;38.952;2024-01-15T01:07:33;7.30;72.07
83596;HTU21D;73564;45.026;38.952;2024-01-15T01:09:59;7.32;71.61
83596;HTU21D;73564;45.026;38.952;2024-01-15T01:12:25;7.28;71.22
83596;HTU21D;73564;45.026;38.952;2024-01-15T01:14:50;7.18;71.42
83596;HTU21D;73564;45.026;38.952;2024-01-15T01:17:16;7.11;71.47
83596;HTU21D;73564;45.026;38.952;2024-01-15T01:19:42;7.02;71.61
83596;HTU21D;73564;45.026;38.952;2024-01-15T01:22:07;6.96;71.85
83596;HTU21D;73564;45.026;38.952;2024-01-15T01:24:33;6.93;71.66
83596;HTU21D;73564;45.026;38.952;2024-01-15T01:26:59;6.81;71.77
83596;HTU21D;73564;45.026;38.952;2024-01-15T01:29:24;6.72;72.03
83596;HTU21D;73564;45.026;38.952;2024-01-15T01:31:51;6.65;72.06
83596;HTU21D;73564;45.026;38.952;2024-01-15T01:34:17;6.57;72.29
83596;HTU21D;73564;45.026;38.952;2024-01-15T01:36:43;6.52;72.57
83596;HTU21D;73564;45.026;38.952;2024-01-15T01:39:09;6.43;72.71
83596;HTU21D;73564;45.026;38.952;2024-01-15T01:41:35;6.39;72.67
83596;HTU21D;73564;45.026;38.952;2024-01-15T01:44:01;6.38;72.70
83596;HTU21D;73564;45.026;38.952;2024-01-15T01:46:27;6.35;72.41
83596;HTU21D;73564;45.026;38.952;2024-01-15T01:48:54;6.27;72.56
83596;HTU21D;73564;45.026;38.952;2024-01-15T01:51:21;6.17;72.58
83596;HTU21D;73564;45.026;38.952;2024-01-15T01:53:48;6.09;72.84
83596;HTU21D;73564;45.026;38.952;2024-01-15T01:56:15;6.00;73.08
83596;HTU21D;73564;45.026;38.952;2024-01-15T01:58:42;5.98;73.13
83596;HTU21D;73564;45.026;38.952;2024-01-15T02:01:08;5.96;73.26
83596;HTU21D;73564;45.026;38.952;2024-01-15T02:03:34;5.93;73.45
83596;HTU21D;73564;45.026;38.952;2024-01-15T02:06:00;5.90;73.57
83596;HTU21D;73564;45.026;38.952;2024-01-15T02:08:26;5.86;73.72
83596;HTU21D;73564;45.026;38.952;2024-01-15T02:10:52;5.89;73.96
83596;HTU21D;73564;45.026;38.952;2024-01-15T02:13:18;5.90;74.07
83596;HTU21D;73564;45.026;38.952;2024-01-15T02:15:44;5.93;74.09
83596;HTU21D;73564;45.026;38.952;2024-01-15T02:18:10;5.99;74.46
83596;HTU21D;73564;45.026;38.952;2024-01-15T02:20:36;6.10;74.31
83596;HTU21D;73564;45.026;38.952;2024-01-15T02:23:09;6.23;74.31
83596;HTU21D;73564;45.026;38.952;2024-01-15T02:25:44;6.33;73.93
83596;HTU21D;73564;45.026;38.952;2024-01-15T02:28:14;6.37;74.18
83596;HTU21D;73564;45.026;38.952;2024-01-15T02:30:41;6.46;74.06
83596;HTU21D;73564;45.026;38.952;2024-01-15T02:33:08;6.53;74.12
83596;HTU21D;73564;45.026;38.952;2024-01-15T02:35:34;6.61;73.90
83596;HTU21D;73564;45.026;38.952;2024-01-15T02:38:02;6.71;73.83
83596;HTU21D;73564;45.026;38.952;2024-01-15T02:40:28;6.80;73.94
83596;HTU21D;73564;45.026;38.952;2024-01-15T02:42:54;6.93;73.83
83596;HTU21D;73564;45.026;38.952;2024-01-15T02:45:21;7.08;73.90
83596;HTU21D;73564;45.026;38.952;2024-01-15T02:47:47;7.22;74.15
83596;HTU21D;73564;45.026;38.952;2024-01-15T02:50:13;7.34;73.43
83596;HTU21D;73564;45.026;38.952;2024-01-15T02:52:39;7.46;73.25
83596;HTU21D;73564;45.026;38.952;2024-01-15T02:55:05;7.59;73.05
83596;HTU21D;73564;45.026;38.952;2024-01-15T02:57:31;7.74;72.76
83596;HTU21D;73564;45.026;38.952;2024-01-15T02:59:57;7.85;72.40
83596;HTU21D;73564;45.026;38.952;2024-01-15T03:02:22;7.91;72.09
83596;HTU21D;73564;45.026;38.952;2024-01-15T03:04:48;7.92;71.84
83596;HTU21D;73564;45.026;38.952;2024-01-15T03:07:14;7.92;71.58
83596;HTU21D;73564;45.026;38.952;2024-01-15T03:09:40;7.85;71.72
83596;HTU21D;73564;45.026;38.952;2024-01-15T03:12:06;7.77;71.76
83596;HTU21D;73564;45.026;38.952;2024-01-15T03:14:32;7.74;71.93
83596;HTU21D;73564;45.026;38.952;2024-01-15T03:16:57;7.70;71.84
83596;HTU21D;73564;45.026;38.952;2024-01-15T03:19:23;7.63;71.84
83596;HTU21D;73564;45.026;38.952;2024-01-15T03:21:49;7.55;71.79
83596;HTU21D;73564;45.026;38.952;2024-01-15T03:24:14;7.46;72.11
83596;HTU21D;73564;45.026;38.952;2024-01-15T03:26:40;7.43;72.47
83596;HTU21D;73564;45.026;38.952;2024-01-15T03:29:06;7.44;72.45
83596;HTU21D;73564;45.026;38.952;2024-01-15T03:31:32;7.42;72.15
83596;HTU21D;73564;45.026;38.952;2024-01-15T03:33:58;7.38;72.21
83596;HTU21D;73564;45.026;38.952;2024-01-15T03:36:24;7.31;72.16
83596;HTU21D;73564;45.026;38.952;2024-01-15T03:38:49;7.24;71.95
83596;HTU21D;73564;45.026;38.952;2024-01-15T03:41:15;7.13;72.25
83596;HTU21D;73564;45.026;38.952;2024-01-15T03:43:41;7.01;72.37
83596;HTU21D;73564;45.026;38.952;2024-01-15T03:46:07;6.94;72.69
83596;HTU21D;73564;45.026;38.952;2024-01-15T03:48:32;6.91;72.82
83596;HTU21D;73564;45.026;38.952;2024-01-15T03:50:58;6.88;72.94
83596;HTU21D;73564;45.026;38.952;2024-01-15T03:53:24;6.86;72.91
83596;HTU21D;73564;45.026;38.952;2024-01-15T03:55:50;6.82;72.78
83596;HTU21D;73564;45.026;38.952;2024-01-15T03:58:15;6.78;72.89
83596;HTU21D;73564;45.026;38.952;2024-01-15T04:00:42;6.72;73.15
83596;HTU21D;73564;45.026;38.952;2024-01-15T04:03:08;6.70;73.32
83596;HTU21D;73564;45.026;38.952;2024-01-15T04:05:33;6.72;73.67
83596;HTU21D;73564;45.026;38.952;2024-01-15T04:07:59;6.79;73.68
83596;HTU21D;73564;45.026;38.952;2024-01-15T04:10:25;6.85;73.44
83596;HTU21D;73564;45.026;38.952;2024-01-15T04:12:51;6.85;73.50
83596;HTU21D;73564;45.026;38.952;2024-01-15T04:15:17;6.88;73.35
83596;HTU21D;73564;45.026;38.952;2024-01-15T04:17:43;6.88;73.73
83596;HTU21D;73564;45.026;38.952;2024-01-15T04:20:09;6.94;73.86
83596;HTU21D;73564;45.026;38.952;2024-01-15T04:22:35;7.00;73.92
83596;HTU21D;73564;45.026;38.952;2024-01-15T04:25:01;7.10;73.97
83596;HTU21D;73564;45.026;38.952;2024-01-15T04:27:27;7.19;73.63
83596;HTU21D;73564;45.026;38.952;2024-01-15T04:29:53;7.26;73.54
83596;HTU21D;73564;45.026;38.952;2024-01-15T04:32:19;7.29;73.34
83596;HTU21D;73564;45.026;38.952;2024-01-15T04:34:45;7.31;73.52
83596;HTU21D;73564;45.026;38.952;2024-01-15T04:37:11;7.38;73.65
83596;HTU21D;73564;45.026;38.952;2024-01-15T04:39:36;7.47;73.40
83596;HTU21D;73564;45.026;38.952;2024-01-15T04:42:02;7.55;73.35
83596;HTU21D;73564;45.026;38.952;2024-01-15T04:44:28;7.63;73.19
83596;HTU21D;73564;45.026;38.952;2024-01-15T04:46:54;7.72;73.19
83596;HTU21D;73564;45.026;38.952;2024-01-15T04:49:20;7.82;73.05
83596;HTU21D;73564;45.026;38.952;2024-01-15T04:51:46;7.91;72.69
83596;HTU21D;73564;45.026;38.952;2024-01-15T04:54:12;7.97;72.47
83596;HTU21D;73564;45.026;38.952;2024-01-15T04:56:37;7.99;72.38
83596;HTU21D;73564;45.026;38.952;2024-01-15T04:59:03;8.00;72.16
83596;HTU21D;73564;45.026;38.952;2024-01-15T05:01:32;8.01;72.25
83596;HTU21D;73564;45.026;38.952;2024-01-15T05:03:59;8.06;72.43
83596;HTU21D;73564;45.026;38.952;2024-01-15T05:06:25;8.14;72.18
83596;HTU21D;73564;45.026;38.952;2024-01-15T05:08:50;8.17;71.82
83596;HTU21D;73564;45.026;38.952;2024-01-15T05:11:16;8.17;71.73
83596;HTU21D;73564;45.026;38.952;2024-01-15T05:13:42;8.16;71.68
83596;HTU21D;73564;45.026;38.952;2024-01-15T05:16:07;8.17;71.78
83596;HTU21D;73564;45.026;38.952;2024-01-15T05:18:33;8.17;71.66
83596;HTU21D;73564;45.026;38.952;2024-01-15T05:20:59;8.15;71.55
83596;HTU21D;73564;45.026;38.952;2024-01-15T05:23:25;8.12;71.64
83596;HTU21D;73564;45.026;38.952;2024-01-15T05:25:51;8.07;71.64
83596;HTU21D;73564;45.026;38.952;2024-01-15T05:28:16;8.08;71.80
83596;HTU21D;73564;45.026;38.952;2024-01-15T05:30:42;8.11;71.83
83596;HTU21D;73564;45.026;38.952;2024-01-15T05:33:08;8.13;71.87
83596;HTU21D;73564;45.026;38.952;2024-01-15T05:35:34;8.16;71.67
83596;HTU21D;73564;45.026;38.952;2024-01-15T05:38:00;8.18;71.48
83596;HTU21D;73564;45.026;38.952;2024-01-15T05:40:26;8.20;71.61
83596;HTU21D;73564;45.026;38.952;2024-01-15T05:42:52;8.24;71.81
83596;HTU21D;73564;45.026;38.952;2024-01-15T05:45:17;8.33;71.51
83596;HTU21D;73564;45.026;38.952;2024-01-15T05:47:43;8.38;71.22
83596;HTU21D;73564;45.026;38.952;2024-01-15T05:50:10;8.39;71.19
83596;HTU21D;73564;45.026;38.952;2024-01-15T05:52:36;8.43;71.31
83596;HTU21D;73564;45.026;38.952;2024-01-15T05:55:02;8.50;71.16
83596;HTU21D;73564;45.026;38.952;2024-01-15T05:57:28;8.55;70.98
83596;HTU21D;73564;45.026;38.952;2024-01-15T05:59:54;8.58;70.68
83596;HTU21D;73564;45.026;38.952;2024-01-15T06:02:20;8.57;70.76
83596;HTU21D;73564;45.026;38.952;2024-01-15T06:04:45;8.60;70.87
83596;HTU21D;73564;45.026;38.952;2024-01-15T06:07:11;8.60;70.68
83596;HTU21D;73564;45.026;38.952;2024-01-15T06:09:37;8.57;70.71
83596;HTU21D;73564;45.026;38.952;2024-01-15T06:12:04;8.57;70.84
83596;HTU21D;73564;45.026;38.952;2024-01-15T06:14:30;8.61;70.70
83596;HTU21D;73564;45.026;38.952;2024-01-15T06:16:56;8.58;70.48
83596;HTU21D;73564;45.026;38.952;2024-01-15T06:19:22;8.50;70.41
83596;HTU21D;73564;45.026;38.952;2024-01-15T06:21:48;8.43;70.69
83596;HTU21D;73564;45.026;38.952;2024-01-15T06:24:13;8.36;70.48
83596;HTU21D;73564;45.026;38.952;2024-01-15T06:26:40;8.28;70.93
83596;HTU21D;73564;45.026;38.952;2024-01-15T06:29:06;8.18;70.84
83596;HTU21D;73564;45.026;38.952;2024-01-15T06:31:32;8.06;71.27
83596;HTU21D;73564;45.026;38.952;2024-01-15T06:33:58;7.99;71.31
83596;HTU21D;73564;45.026;38.952;2024-01-15T06:36:23;7.93;71.50
83596;HTU21D;73564;45.026;38.952;2024-01-15T06:38:49;7.87;71.64
83596;HTU21D;73564;45.026;38.952;2024-01-15T06:41:15;7.81;71.55
83596;HTU21D;73564;45.026;38.952;2024-01-15T06:43:40;7.73;71.67
83596;HTU21D;73564;45.026;38.952;2024-01-15T06:46:06;7.64;71.70
83596;HTU21D;73564;45.026;38.952;2024-01-15T06:48:32;7.58;71.76
83596;HTU21D;73564;45.026;38.952;2024-01-15T06:50:58;7.50;72.00
83596;HTU21D;73564;45.026;38.952;2024-01-15T06:53:23;7.47;72.16
83596;HTU21D;73564;45.026;38.952;2024-01-15T06:55:49;7.46;72.34
83596;HTU21D;73564;45.026;38.952;2024-01-15T06:58:16;7.46;72.64
83596;HTU21D;73564;45.026;38.952;2024-01-15T07:00:42;7.52;72.55
83596;HTU21D;73564;45.026;38.952;2024-01-15T07:03:08;7.56;73.00
83596;HTU21D;73564;45.026;38.952;2024-01-15T07:05:34;7.64;72.87
83596;HTU21D;73564;45.026;38.952;2024-01-15T07:07:59;7.74;72.83
83596;HTU21D;73564;45.026;38.952;2024-01-15T07:10:25;7.83;72.66
83596;HTU21D;73564;45.026;38.952;2024-01-15T07:12:51;7.93;72.36
83596;HTU21D;73564;45.026;38.952;2024-01-15T07:15:17;7.97;71.76
83596;HTU21D;73564;45.026;38.952;2024-01-15T07:17:43;7.93;71.86
83596;HTU21D;73564;45.026;38.952;2024-01-15T07:20:09;7.91;71.95
83596;HTU21D;73564;45.026;38.952;2024-01-15T07:22:38;7.88;71.96
83596;HTU21D;73564;45.026;38.952;2024-01-15T07:25:05;7.83;72.27
83596;HTU21D;73564;45.026;38.952;2024-01-15T07:27:32;7.84;72.28
83596;HTU21D;73564;45.026;38.952;2024-01-15T07:29:58;7.81;72.25
83596;HTU21D;73564;45.026;38.952;2024-01-15T07:32:24;7.78;72.35
83596;HTU21D;73564;45.026;38.952;2024-01-15T07:34:49;7.78;72.32
83596;HTU21D;73564;45.026;38.952;2024-01-15T07:37:15;7.79;72.61
83596;HTU21D;73564;45.026;38.952;2024-01-15T07:39:41;7.88;72.67
83596;HTU21D;73564;45.026;38.952;2024-01-15T07:42:07;7.94;72.42
83596;HTU21D;73564;45.026;38.952;2024-01-15T07:44:33;8.00;72.60
83596;HTU21D;73564;45.026;38.952;2024-01-15T07:46:59;8.08;72.50
83596;HTU21D;73564;45.026;38.952;2024-01-15T07:49:25;8.17;72.35
83596;HTU21D;73564;45.026;38.952;2024-01-15T07:51:50;8.23;72.45
83596;HTU21D;73564;45.026;38.952;2024-01-15T07:54:16;8.30;72.39
83596;HTU21D;73564;45.026;38.952;2024-01-15T07:57:01;8.41;72.14
83596;HTU21D;73564;45.026;38.952;2024-01-15T07:59:29;8.44;72.43
83596;HTU21D;73564;45.026;38.952;2024-01-15T08:01:54;8.52;72.27
83596;HTU21D;73564;45.026;38.952;2024-01-15T08:04:20;8.62;73.08
83596;HTU21D;73564;45.026;38.952;2024-01-15T08:06:47;8.80;72.64
83596;HTU21D;73564;45.026;38.952;2024-01-15T08:09:13;8.88;72.03
83596;HTU21D;73564;45.026;38.952;2024-01-15T08:11:40;8.91;71.90
83596;HTU21D;73564;45.026;38.952;2024-01-15T08:14:07;8.89;71.98
83596;HTU21D;73564;45.026;38.952;2024-01-15T08:16:33;8.91;72.30
83596;HTU21D;73564;45.026;38.952;2024-01-15T08:18:59;8.96;72.16
83596;HTU21D;73564;45.026;38.952;2024-01-15T08:21:24;9.00;72.24
83596;HTU21D;73564;45.026;38.952;2024-01-15T08:23:50;9.02;72.17
83596;HTU21D;73564;45.026;38.952;2024-01-15T08:26:16;9.06;72.35
83596;HTU21D;73564;45.026;38.952;2024-01-15T08:28:42;9.11;72.37
83596;HTU21D;73564;45.026;38.952;2024-01-15T08:31:07;9.17;72.45
83596;HTU21D;73564;45.026;38.952;2024-01-15T08:33:33;9.27;72.36
83596;HTU21D;73564;45.026;38.952;2024-01-15T08:35:59;9.33;72.21
83596;HTU21D;73564;45.026;38.952;2024-01-15T08:38:25;9.40;72.29
83596;HTU21D;73564;45.026;38.952;2024-01-15T08:40:50;9.49;72.22
83596;HTU21D;73564;45.026;38.952;2024-01-15T08:43:18;9.59;72.04
83596;HTU21D;73564;45.026;38.952;2024-01-15T08:45:44;9.67;71.69
83596;HTU21D;73564;45.026;38.952;2024-01-15T08:48:10;9.69;71.62
83596;HTU21D;73564;45.026;38.952;2024-01-15T08:50:36;9.76;71.71
83596;HTU21D;73564;45.026;38.952;2024-01-15T08:53:02;9.82;71.48
83596;HTU21D;73564;45.026;38.952;2024-01-15T08:55:28;9.89;71.55
83596;HTU21D;73564;45.026;38.952;2024-01-15T08:57:54;9.98;71.28
83596;HTU21D;73564;45.026;38.952;2024-01-15T09:00:19;10.04;71.27
83596;HTU21D;73564;45.026;38.952;2024-01-15T09:02:45;10.10;70.98
83596;HTU21D;73564;45.026;38.952;2024-01-15T09:05:11;10.14;70.96
83596;HTU21D;73564;45.026;38.952;2024-01-15T09:07:37;10.22;71.05
83596;HTU21D;73564;45.026;38.952;2024-01-15T09:10:03;10.33;70.98
83596;HTU21D;73564;45.026;38.952;2024-01-15T09:12:29;10.43;70.84
83596;HTU21D;73564;45.026;38.952;2024-01-15T09:14:55;10.52;70.57
83596;HTU21D;73564;45.026;38.952;2024-01-15T09:17:21;10.56;70.13
83596;HTU21D;73564;45.026;38.952;2024-01-15T09:19:50;10.54;70.20
83596;HTU21D;73564;45.026;38.952;2024-01-15T09:22:15;10.55;70.39
83596;HTU21D;73564;45.026;38.952;2024-01-15T09:24:47;10.60;70.51
83596;HTU21D;73564;45.026;38.952;2024-01-15T09:27:13;10.66;70.40
83596;HTU21D;73564;45.026;38.952;2024-01-15T09:29:39;10.70;70.29
83596;HTU21D;73564;45.026;38.952;2024-01-15T09:32:08;10.74;70.33
83596;HTU21D;73564;45.026;38.952;2024-01-15T09:34:34;10.84;70.32
83596;HTU21D;73564;45.026;38.952;2024-01-15T09:37:00;10.97;70.28
83596;HTU21D;73564;45.026;38.952;2024-01-15T09:39:26;11.10;69.71
83596;HTU21D;73564;45.026;38.952;2024-01-15T09:41:53;11.14;69.56
83596;HTU21D;73564;45.026;38.952;2024-01-15T09:44:19;11.16;69.53
83596;HTU21D;73564;45.026;38.952;2024-01-15T09:46:49;11.22;69.14
83596;HTU21D;73564;45.026;38.952;2024-01-15T09:49:18;11.17;69.00
83596;HTU21D;73564;45.026;38.952;2024-01-15T09:51:44;11.12;68.11
83596;HTU21D;73564;45.026;38.952;2024-01-15T09:54:10;11.04;68.41
83596;HTU21D;73564;45.026;38.952;2024-01-15T09:56:39;10.95;67.83
83596;HTU21D;73564;45.026;38.952;2024-01-15T09:59:05;10.84;68.11
83596;HTU21D;73564;45.026;38.952;2024-01-15T10:01:32;10.73;67.64
83596;HTU21D;73564;45.026;38.952;2024-01-15T10:03:58;10.66;68.23
83596;HTU21D;73564;45.026;38.952;2024-01-15T10:06:26;10.65;68.25
83596;HTU21D;73564;45.026;38.952;2024-01-15T10:08:53;10.66;68.34
83596;HTU21D;73564;45.026;38.952;2024-01-15T10:11:19;10.72;68.24
83596;HTU21D;73564;45.026;38.952;2024-01-15T10:13:46;10.77;68.02
83596;HTU21D;73564;45.026;38.952;2024-01-15T10:16:15;10.79;67.62
83596;HTU21D;73564;45.026;38.952;2024-01-15T10:18:41;10.79;67.20
83596;HTU21D;73564;45.026;38.952;2024-01-15T10:21:07;10.79;67.12
83596;HTU21D;73564;45.026;38.952;2024-01-15T10:23:33;10.74;67.01
83596;HTU21D;73564;45.026;38.952;2024-01-15T10:25:59;10.77;67.01
83596;HTU21D;73564;45.026;38.952;2024-01-15T10:28:29;10.79;67.09
83596;HTU21D;73564;45.026;38.952;2024-01-15T10:30:57;10.85;66.75
83596;HTU21D;73564;45.026;38.952;2024-01-15T10:33:24;10.89;67.04
83596;HTU21D;73564;45.026;38.952;2024-01-15T10:35:58;10.94;66.57
83596;HTU21D;73564;45.026;38.952;2024-01-15T10:38:25;10.95;66.28
83596;HTU21D;73564;45.026;38.952;2024-01-15T10:40:54;10.95;66.20
83596;HTU21D;73564;45.026;38.952;2024-01-15T10:43:21;10.96;66.36
83596;HTU21D;73564;45.026;38.952;2024-01-15T10:45:48;10.94;66.05
83596;HTU21D;73564;45.026;38.952;2024-01-15T10:48:16;10.87;66.07
83596;HTU21D;73564;45.026;38.952;2024-01-15T10:50:42;10.84;66.10
83596;HTU21D;73564;45.026;38.952;2024-01-15T10:53:09;10.80;66.32
83596;HTU21D;73564;45.026;38.952;2024-01-15T10:55:38;10.80;66.02
83596;HTU21D;73564;45.026;38.952;2024-01-15T10:58:05;10.75;66.07
83596;HTU21D;73564;45.026;38.952;2024-01-15T11:00:36;10.78;65.90
83596;HTU21D;73564;45.026;38.952;2024-01-15T11:03:06;10.81;66.18
83596;HTU21D;73564;45.026;38.952;2024-01-15T11:05:38;10.84;65.75
83596;HTU21D;73564;45.026;38.952;2024-01-15T11:08:08;10.88;65.84
83596;HTU21D;73564;45.026;38.952;2024-01-15T11:10:47;10.94;65.45
83596;HTU21D;73564;45.026;38.952;2024-01-15T11:16:02;10.90;65.82
83596;HTU21D;73564;45.026;38.952;2024-01-15T11:18:31;10.90;65.31
83596;HTU21D;73564;45.026;38.952;2024-01-15T11:31:58;10.94;65.73
83596;HTU21D;73564;45.026;38.952;2024-01-15T11:34:59;10.98;65.91
83596;HTU21D;73564;45.026;38.952;2024-01-15T11:37:29;11.02;65.81
83596;HTU21D;73564;45.026;38.952;2024-01-15T11:40:01;11.02;65.46
83596;HTU21D;73564;45.026;38.952;2024-01-15T11:42:29;11.01;64.23
83596;HTU21D;73564;45.026;38.952;2024-01-15T11:44:55;11.02;65.22
83596;HTU21D;73564;45.026;38.952;2024-01-15T11:50:22;11.01;65.39
83596;HTU21D;73564;45.026;38.952;2024-01-15T11:53:02;11.02;64.25
83596;HTU21D;73564;45.026;38.952;2024-01-15T11:55:35;11.04;64.95
83596;HTU21D;73564;45.026;38.952;2024-01-15T11:58:09;11.01;64.18
83596;HTU21D;73564;45.026;38.952;2024-01-15T12:00:42;10.95;64.15
83596;HTU21D;73564;45.026;38.952;2024-01-15T12:03:09;10.89;64.54
83596;HTU21D;73564;45.026;38.952;2024-01-15T12:05:37;10.88;65.02
83596;HTU21D;73564;45.026;38.952;2024-01-15T12:08:03;10.92;64.95
83596;HTU21D;73564;45.026;38.952;2024-01-15T12:10:38;10.94;64.01
83596;HTU21D;73564;45.026;38.952;2024-01-15T12:13:14;10.92;64.31
83596;HTU21D;73564;45.026;38.952;2024-01-15T12:15:44;10.90;63.79
83596;HTU21D;73564;45.026;38.952;2024-01-15T12:18:15;10.89;63.88
83596;HTU21D;73564;45.026;38.952;2024-01-15T12:20:42;10.88;64.22
83596;HTU21D;73564;45.026;38.952;2024-01-15T12:23:08;10.92;64.27
83596;HTU21D;73564;45.026;38.952;2024-01-15T12:25:35;10.97;63.88
83596;HTU21D;73564;45.026;38.952;2024-01-15T12:28:02;10.99;63.80
83596;HTU21D;73564;45.026;38.952;2024-01-15T12:30:29;11.03;64.00
83596;HTU21D;73564;45.026;38.952;2024-01-15T12:32:56;11.03;63.62
83596;HTU21D;73564;45.026;38.952;2024-01-15T12:35:24;11.04;63.62
83596;HTU21D;73564;45.026;38.952;2024-01-15T12:37:51;11.07;63.60
83596;HTU21D;73564;45.026;38.952;2024-01-15T12:40:20;11.04;63.35
83596;HTU21D;73564;45.026;38.952;2024-01-15T12:42:46;11.02;63.76
83596;HTU21D;73564;45.026;38.952;2024-01-15T12:45:12;11.03;63.37
83596;HTU21D;73564;45.026;38.952;2024-01-15T12:47:38;11.02;63.14
83596;HTU21D;73564;45.026;38.952;2024-01-15T12:50:09;10.98;63.13
83596;HTU21D;73564;45.026;38.952;2024-01-15T12:52:34;10.95;63.85
83596;HTU21D;73564;45.026;38.952;2024-01-15T12:55:00;10.98;64.32
83596;HTU21D;73564;45.026;38.952;2024-01-15T12:57:26;11.09;64.37
83596;HTU21D;73564;45.026;38.952;2024-01-15T12:59:54;11.16;64.10
83596;HTU21D;73564;45.026;38.952;2024-01-15T13:02:20;11.25;64.05
83596;HTU21D;73564;45.026;38.952;2024-01-15T13:04:46;11.33;63.56
83596;HTU21D;73564;45.026;38.952;2024-01-15T13:07:12;11.37;63.36
83596;HTU21D;73564;45.026;38.952;2024-01-15T13:09:38;11.37;63.21
83596;HTU21D;73564;45.026;38.952;2024-01-15T13:12:04;11.34;62.91
83596;HTU21D;73564;45.026;38.952;2024-01-15T13:14:31;11.30;63.08
83596;HTU21D;73564;45.026;38.952;2024-01-15T13:16:58;11.27;62.87
83596;HTU21D;73564;45.026;38.952;2024-01-15T13:19:24;11.23;62.94
83596;HTU21D;73564;45.026;38.952;2024-01-15T13:21:50;11.17;62.90
83596;HTU21D;73564;45.026;38.952;2024-01-15T13:24:17;11.16;63.08
83596;HTU21D;73564;45.026;38.952;2024-01-15T13:26:43;11.12;63.30
83596;HTU21D;73564;45.026;38.952;2024-01-15T13:29:09;11.12;63.44
83596;HTU21D;73564;45.026;38.952;2024-01-15T13:31:35;11.15;63.44
83596;HTU21D;73564;45.026;38.952;2024-01-15T13:34:00;11.16;63.25
83596;HTU21D;73564;45.026;38.952;2024-01-15T13:36:26;11.14;62.54
83596;HTU21D;73564;45.026;38.952;2024-01-15T13:38:53;11.12;63.33
83596;HTU21D;73564;45.026;38.952;2024-01-15T13:41:20;11.11;63.18
83596;HTU21D;73564;45.026;38.952;2024-01-15T13:43:51;11.07;63.40
83596;HTU21D;73564;45.026;38.952;2024-01-15T13:46:19;11.03;63.56
83596;HTU21D;73564;45.026;38.952;2024-01-15T13:48:45;11.00;63.45
83596;HTU21D;73564;45.026;38.952;2024-01-15T13:51:11;11.01;63.83
83596;HTU21D;73564;45.026;38.952;2024-01-15T13:53:40;11.03;63.79
83596;HTU21D;73564;45.026;38.952;2024-01-15T13:56:07;11.05;63.32
83596;HTU21D;73564;45.026;38.952;2024-01-15T13:58:34;11.05;63.44
83596;HTU21D;73564;45.026;38.952;2024-01-15T14:01:00;10.99;63.18
83596;HTU21D;73564;45.026;38.952;2024-01-15T14:03:26;10.89;63.50
83596;HTU21D;73564;45.026;38.952;2024-01-15T14:05:52;10.82;63.63
83596;HTU21D;73564;45.026;38.952;2024-01-15T14:08:18;10.73;63.54
83596;HTU21D;73564;45.026;38.952;2024-01-15T14:10:44;10.69;63.56
83596;HTU21D;73564;45.026;38.952;2024-01-15T14:13:10;10.60;63.52
83596;HTU21D;73564;45.026;38.952;2024-01-15T14:15:36;10.52;63.44
83596;HTU21D;73564;45.026;38.952;2024-01-15T14:18:02;10.46;63.46
83596;HTU21D;73564;45.026;38.952;2024-01-15T14:20:28;10.44;63.58
83596;HTU21D;73564;45.026;38.952;2024-01-15T14:22:54;10.38;63.60
83596;HTU21D;73564;45.026;38.952;2024-01-15T14:25:20;10.35;63.56
83596;HTU21D;73564;45.026;38.952;2024-01-15T14:27:47;10.35;63.81
83596;HTU21D;73564;45.026;38.952;2024-01-15T14:30:13;10.36;63.76
83596;HTU21D;73564;45.026;38.952;2024-01-15T14:32:40;10.37;63.93
83596;HTU21D;73564;45.026;38.952;2024-01-15T14:35:07;10.37;64.17
83596;HTU21D;73564;45.026;38.952;2024-01-15T14:37:33;10.43;63.99
83596;HTU21D;73564;45.026;38.952;2024-01-15T14:39:59;10.44;64.21
83596;HTU21D;73564;45.026;38.952;2024-01-15T14:42:25;10.49;64.34
83596;HTU21D;73564;45.026;38.952;2024-01-15T14:44:51;10.55;64.14
83596;HTU21D;73564;45.026;38.952;2024-01-15T14:47:17;10.58;64.26
83596;HTU21D;73564;45.026;38.952;2024-01-15T14:49:42;10.59;64.24
83596;HTU21D;73564;45.026;38.952;2024-01-15T14:52:08;10.60;64.29
83596;HTU21D;73564;45.026;38.952;2024-01-15T14:54:34;10.65;64.40
83596;HTU21D;73564;45.026;38.952;2024-01-15T14:57:00;10.72;64.34
83596;HTU21D;73564;45.026;38.952;2024-01-15T14:59:26;10.77;64.16
83596;HTU21D;73564;45.026;38.952;2024-01-15T15:01:54;10.78;64.03
83596;HTU21D;73564;45.026;38.952;2024-01-15T15:04:20;10.79;63.96
83596;HTU21D;73564;45.026;38.952;2024-01-15T15:06:45;10.79;63.92
83596;HTU21D;73564;45.026;38.952;2024-01-15T15:09:11;10.78;64.01
83596;HTU21D;73564;45.026;38.952;2024-01-15T15:11:37;10.80;63.94
83596;HTU21D;73564;45.026;38.952;2024-01-15T15:14:03;10.81;63.95
83596;HTU21D;73564;45.026;38.952;2024-01-15T15:16:32;10.82;63.69
83596;HTU21D;73564;45.026;38.952;2024-01-15T15:18:58;10.82;63.59
83596;HTU21D;73564;45.026;38.952;2024-01-15T15:21:24;10.81;63.73
83596;HTU21D;73564;45.026;38.952;2024-01-15T15:23:50;10.84;63.79